sensor_id;sensor_type;location;lat;lon;timestamp;pressure;altitude;pressure_sealevel;temperature;humidity
62402;BME280;48440;51.224;22.506;2023-05-07T00:00:02;99434.63;;;7.11;73.61
62402;BME280;48440;51.224;22.506;2023-05-07T00:02:28;99428.41;;;7.10;73.19
62402;BME280;48440;51.224;22.506;2023-05-07T00:04:54;99443.41;;;7.06;73.15
62402;BME280;48440;51.224;22.506;2023-05-07T00:07:20;99425.56;;;7.05;73.10
62402;BME280;48440;51.224;22.506;2023-05-07T00:09:46;99434.94;;;7.03;73.43
62402;BME280;48440;51.224;22.506;2023-05-07T00:12:11;99431.66;;;7.01;73.62
62402;BME280;48440;51.224;22.506;2023-05-07T00:14:36;99424.63;;;7.00;73.78
62402;BME280;48440;51.224;22.506;2023-05-07T00:17:02;99425.78;;;7.04;73.59
62402;BME280;48440;51.224;22.506;2023-05-07T00:19:27;99423.91;;;7.04;73.40
62402;BME280;48440;51.224;22.506;2023-05-07T00:21:53;99432.25;;;7.03;73.63
62402;BME280;48440;51.224;22.506;2023-05-07T00:24:24;99459.72;;;7.00;73.78
62402;BME280;48440;51.224;22.506;2023-05-07T00:26:50;99438.56;;;6.97;73.89
62402;BME280;48440;51.224;22.506;2023-05-07T00:29:15;99424.25;;;6.96;74.19
62402;BME280;48440;51.224;22.506;2023-05-07T00:31:41;99430.03;;;7.00;73.75
62402;BME280;48440;51.224;22.506;2023-05-07T00:34:06;99432.13;;;6.98;74.00
62402;BME280;48440;51.224;22.506;2023-05-07T00:36:32;99431.91;;;6.99;73.71
62402;BME280;48440;51.224;22.506;2023-05-07T00:38:59;99441.88;;;6.99;73.50
62402;BME280;48440;51.224;22.506;2023-05-07T00:41:25;99430.97;;;7.05;72.50
62402;BME280;48440;51.224;22.506;2023-05-07T00:43:51;99428.59;;;6.97;73.46
62402;BME280;48440;51.224;22.506;2023-05-07T00:46:20;99437.53;;;6.98;73.32
62402;BME280;48440;51.224;22.506;2023-05-07T00:48:46;99442.09;;;6.97;73.90
62402;BME280;48440;51.224;22.506;2023-05-07T00:51:12;99449.13;;;6.98;73.77
62402;BME280;48440;51.224;22.506;2023-05-07T00:53:38;99441.94;;;6.92;73.09
62402;BME280;48440;51.224;22.506;2023-05-07T00:56:05;99440.53;;;6.90;73.62
62402;BME280;48440;51.224;22.506;2023-05-07T00:58:32;99446.38;;;6.87;73.41
62402;BME280;48440;51.224;22.506;2023-05-07T01:00:57;99451.53;;;6.88;73.97
62402;BME280;48440;51.224;22.506;2023-05-07T01:03:23;99435.72;;;6.92;73.51
62402;BME280;48440;51.224;22.506;2023-05-07T01:05:49;99443.22;;;6.90;73.52
62402;BME280;48440;51.224;22.506;2023-05-07T01:08:16;99446.59;;;6.85;73.29
62402;BME280;48440;51.224;22.506;2023-05-07T01:10:42;99455.38;;;6.80;74.05
62402;BME280;48440;51.224;22.506;2023-05-07T01:13:12;99446.91;;;6.77;73.90
62402;BME280;48440;51.224;22.506;2023-05-07T01:15:38;99467.66;;;6.76;73.93
62402;BME280;48440;51.224;22.506;2023-05-07T01:18:04;99458.44;;;6.84;73.21
62402;BME280;48440;51.224;22.506;2023-05-07T01:20:30;99443.75;;;6.80;73.54
62402;BME280;48440;51.224;22.506;2023-05-07T01:22:57;99447.38;;;6.74;73.59
62402;BME280;48440;51.224;22.506;2023-05-07T01:25:23;99442.88;;;6.68;74.09
62402;BME280;48440;51.224;22.506;2023-05-07T01:27:49;99437.25;;;6.69;74.35
62402;BME280;48440;51.224;22.506;2023-05-07T01:30:15;99441.38;;;6.72;74.02
62402;BME280;48440;51.224;22.506;2023-05-07T01:32:48;99458.16;;;6.74;74.24
62402;BME280;48440;51.224;22.506;2023-05-07T01:35:19;99441.22;;;6.67;74.19
62402;BME280;48440;51.224;22.506;2023-05-07T01:37:46;99447.44;;;6.67;74.13
62402;BME280;48440;51.224;22.506;2023-05-07T01:40:13;99457.19;;;6.68;74.53
62402;BME280;48440;51.224;22.506;2023-05-07T01:42:38;99452.84;;;6.67;73.82
62402;BME280;48440;51.224;22.506;2023-05-07T01:45:05;99452.91;;;6.61;74.54
62402;BME280;48440;51.224;22.506;2023-05-07T01:47:30;99453.06;;;6.66;73.95
62402;BME280;48440;51.224;22.506;2023-05-07T01:49:57;99455.69;;;6.72;73.97
62402;BME280;48440;51.224;22.506;2023-05-07T01:52:23;99459.00;;;6.74;74.27
62402;BME280;48440;51.224;22.506;2023-05-07T01:54:50;99464.00;;;6.71;74.26
62402;BME280;48440;51.224;22.506;2023-05-07T01:57:15;99456.38;;;6.68;74.02
62402;BME280;48440;51.224;22.506;2023-05-07T01:59:41;99449.91;;;6.69;74.22
62402;BME280;48440;51.224;22.506;2023-05-07T02:02:06;99454.50;;;6.68;73.88
62402;BME280;48440;51.224;22.506;2023-05-07T02:04:32;99449.38;;;6.60;74.49
62402;BME280;48440;51.224;22.506;2023-05-07T02:06:57;99447.28;;;6.62;74.20
62402;BME280;48440;51.224;22.506;2023-05-07T02:09:23;99454.56;;;6.62;74.05
62402;BME280;48440;51.224;22.506;2023-05-07T02:11:49;99458.75;;;6.58;73.93
62402;BME280;48440;51.224;22.506;2023-05-07T02:14:14;99454.56;;;6.62;73.67
62402;BME280;48440;51.224;22.506;2023-05-07T02:16:40;99464.38;;;6.56;74.41
62402;BME280;48440;51.224;22.506;2023-05-07T02:19:06;99455.00;;;6.59;74.68
62402;BME280;48440;51.224;22.506;2023-05-07T02:21:31;99464.53;;;6.61;73.81
62402;BME280;48440;51.224;22.506;2023-05-07T02:23:57;99461.06;;;6.54;73.70
62402;BME280;48440;51.224;22.506;2023-05-07T02:26:22;99455.28;;;6.51;73.79
62402;BME280;48440;51.224;22.506;2023-05-07T02:28:48;99457.88;;;6.45;73.98
62402;BME280;48440;51.224;22.506;2023-05-07T02:31:13;99476.56;;;6.40;74.53
62402;BME280;48440;51.224;22.506;2023-05-07T02:33:38;99463.47;;;6.44;74.03
62402;BME280;48440;51.224;22.506;2023-05-07T02:36:10;99462.44;;;6.45;73.77
62402;BME280;48440;51.224;22.506;2023-05-07T02:38:36;99471.94;;;6.47;73.77
62402;BME280;48440;51.224;22.506;2023-05-07T02:41:02;99470.53;;;6.45;74.14
62402;BME280;48440;51.224;22.506;2023-05-07T02:43:27;99466.84;;;6.39;73.95
62402;BME280;48440;51.224;22.506;2023-05-07T02:46:07;99469.09;;;6.42;74.40
62402;BME280;48440;51.224;22.506;2023-05-07T02:48:33;99466.56;;;6.47;73.62
62402;BME280;48440;51.224;22.506;2023-05-07T02:51:00;99466.63;;;6.41;73.75
62402;BME280;48440;51.224;22.506;2023-05-07T02:53:26;99463.53;;;6.37;73.75
62402;BME280;48440;51.224;22.506;2023-05-07T02:55:53;99469.59;;;6.33;74.43
62402;BME280;48440;51.224;22.506;2023-05-07T02:58:18;99472.06;;;6.34;74.42
62402;BME280;48440;51.224;22.506;2023-05-07T03:00:44;99468.78;;;6.32;74.48
62402;BME280;48440;51.224;22.506;2023-05-07T03:03:10;99466.75;;;6.28;74.26
62402;BME280;48440;51.224;22.506;2023-05-07T03:05:36;99482.91;;;6.28;74.53
62402;BME280;48440;51.224;22.506;2023-05-07T03:08:01;99479.16;;;6.29;73.98
62402;BME280;48440;51.224;22.506;2023-05-07T03:10:27;99479.38;;;6.27;74.25
62402;BME280;48440;51.224;22.506;2023-05-07T03:12:52;99495.66;;;6.21;74.55
62402;BME280;48440;51.224;22.506;2023-05-07T03:15:17;99491.59;;;6.30;73.99
62402;BME280;48440;51.224;22.506;2023-05-07T03:17:43;99486.44;;;6.28;74.14
62402;BME280;48440;51.224;22.506;2023-05-07T03:20:09;99490.94;;;6.34;73.68
62402;BME280;48440;51.224;22.506;2023-05-07T03:22:35;99505.03;;;6.36;73.86
62402;BME280;48440;51.224;22.506;2023-05-07T03:25:00;99505.28;;;6.28;73.93
62402;BME280;48440;51.224;22.506;2023-05-07T03:27:25;99498.88;;;6.29;73.70
62402;BME280;48440;51.224;22.506;2023-05-07T03:29:51;99492.88;;;6.27;74.47
62402;BME280;48440;51.224;22.506;2023-05-07T03:32:16;99499.31;;;6.26;74.63
62402;BME280;48440;51.224;22.506;2023-05-07T03:34:42;99505.16;;;6.23;74.41
62402;BME280;48440;51.224;22.506;2023-05-07T03:37:07;99501.16;;;6.26;74.24
62402;BME280;48440;51.224;22.506;2023-05-07T03:39:33;99515.03;;;6.29;74.15
62402;BME280;48440;51.224;22.506;2023-05-07T03:41:58;99523.13;;;6.29;73.90
62402;BME280;48440;51.224;22.506;2023-05-07T03:44:23;99514.66;;;6.26;73.78
62402;BME280;48440;51.224;22.506;2023-05-07T03:46:49;99515.78;;;6.18;74.47
62402;BME280;48440;51.224;22.506;2023-05-07T03:49:15;99524.06;;;6.17;74.97
62402;BME280;48440;51.224;22.506;2023-05-07T03:51:40;99513.91;;;6.19;74.72
62402;BME280;48440;51.224;22.506;2023-05-07T03:54:06;99521.16;;;6.18;74.93
62402;BME280;48440;51.224;22.506;2023-05-07T03:56:31;99527.59;;;6.17;75.08
62402;BME280;48440;51.224;22.506;2023-05-07T03:58:57;99513.75;;;6.13;75.12
62402;BME280;48440;51.224;22.506;2023-05-07T04:01:22;99523.47;;;6.15;75.44
62402;BME280;48440;51.224;22.506;2023-05-07T04:03:47;99523.09;;;6.11;75.04
62402;BME280;48440;51.224;22.506;2023-05-07T04:06:13;99529.28;;;6.11;74.98
62402;BME280;48440;51.224;22.506;2023-05-07T04:08:39;99536.56;;;6.11;75.18
62402;BME280;48440;51.224;22.506;2023-05-07T04:11:04;99541.94;;;6.11;75.05
62402;BME280;48440;51.224;22.506;2023-05-07T04:13:30;99546.28;;;6.12;75.37
62402;BME280;48440;51.224;22.506;2023-05-07T04:15:56;99549.38;;;6.16;75.42
62402;BME280;48440;51.224;22.506;2023-05-07T04:18:21;99561.41;;;6.13;74.79
62402;BME280;48440;51.224;22.506;2023-05-07T04:20:48;99557.72;;;6.07;74.83
62402;BME280;48440;51.224;22.506;2023-05-07T04:23:14;99560.84;;;6.04;75.13
62402;BME280;48440;51.224;22.506;2023-05-07T04:25:40;99556.50;;;6.03;75.14
62402;BME280;48440;51.224;22.506;2023-05-07T04:28:05;99550.28;;;6.03;75.37
62402;BME280;48440;51.224;22.506;2023-05-07T04:30:31;99554.63;;;6.04;75.45
62402;BME280;48440;51.224;22.506;2023-05-07T04:32:56;99559.28;;;5.97;75.51
62402;BME280;48440;51.224;22.506;2023-05-07T04:35:22;99554.72;;;5.97;75.69
62402;BME280;48440;51.224;22.506;2023-05-07T04:37:48;99556.28;;;6.05;75.71
62402;BME280;48440;51.224;22.506;2023-05-07T04:40:13;99565.19;;;6.05;75.09
62402;BME280;48440;51.224;22.506;2023-05-07T04:42:39;99582.63;;;6.03;75.22
62402;BME280;48440;51.224;22.506;2023-05-07T04:45:05;99574.97;;;6.00;75.45
62402;BME280;48440;51.224;22.506;2023-05-07T04:47:30;99563.38;;;5.99;76.19
62402;BME280;48440;51.224;22.506;2023-05-07T04:49:57;99575.59;;;6.02;75.85
62402;BME280;48440;51.224;22.506;2023-05-07T04:52:23;99575.19;;;5.98;75.97
62402;BME280;48440;51.224;22.506;2023-05-07T04:54:48;99587.41;;;6.01;76.19
62402;BME280;48440;51.224;22.506;2023-05-07T04:57:13;99590.78;;;5.96;76.20
62402;BME280;48440;51.224;22.506;2023-05-07T04:59:39;99591.34;;;5.98;75.68
62402;BME280;48440;51.224;22.506;2023-05-07T05:02:05;99590.69;;;6.03;75.12
62402;BME280;48440;51.224;22.506;2023-05-07T05:04:30;99585.13;;;5.98;76.04
62402;BME280;48440;51.224;22.506;2023-05-07T05:06:59;99599.22;;;6.00;76.12
62402;BME280;48440;51.224;22.506;2023-05-07T05:09:24;99588.44;;;6.00;76.05
62402;BME280;48440;51.224;22.506;2023-05-07T05:11:50;99591.31;;;6.05;75.81
62402;BME280;48440;51.224;22.506;2023-05-07T05:14:15;99582.63;;;6.03;75.64
62402;BME280;48440;51.224;22.506;2023-05-07T05:16:41;99580.81;;;5.97;75.10
62402;BME280;48440;51.224;22.506;2023-05-07T05:19:06;99595.56;;;5.94;75.10
62402;BME280;48440;51.224;22.506;2023-05-07T05:21:31;99603.63;;;5.94;75.14
62402;BME280;48440;51.224;22.506;2023-05-07T05:23:58;99588.91;;;5.97;75.11
62402;BME280;48440;51.224;22.506;2023-05-07T05:26:23;99600.50;;;5.97;75.13
62402;BME280;48440;51.224;22.506;2023-05-07T05:28:49;99598.03;;;5.96;75.12
62402;BME280;48440;51.224;22.506;2023-05-07T05:31:15;99598.47;;;5.93;75.40
62402;BME280;48440;51.224;22.506;2023-05-07T05:33:41;99604.88;;;5.85;75.69
62402;BME280;48440;51.224;22.506;2023-05-07T05:36:09;99602.22;;;5.78;75.31
62402;BME280;48440;51.224;22.506;2023-05-07T05:38:34;99608.22;;;5.80;75.70
62402;BME280;48440;51.224;22.506;2023-05-07T05:41:00;99611.75;;;5.81;76.14
62402;BME280;48440;51.224;22.506;2023-05-07T05:43:25;99615.06;;;5.83;75.58
62402;BME280;48440;51.224;22.506;2023-05-07T05:45:51;99620.84;;;5.87;75.61
62402;BME280;48440;51.224;22.506;2023-05-07T05:48:16;99618.78;;;5.89;75.20
62402;BME280;48440;51.224;22.506;2023-05-07T05:50:42;99622.09;;;5.91;75.35
62402;BME280;48440;51.224;22.506;2023-05-07T05:53:07;99620.22;;;5.91;74.86
62402;BME280;48440;51.224;22.506;2023-05-07T05:55:33;99618.56;;;5.90;74.89
62402;BME280;48440;51.224;22.506;2023-05-07T05:58:02;99622.91;;;5.85;74.84
62402;BME280;48440;51.224;22.506;2023-05-07T06:00:28;99629.75;;;5.87;75.55
62402;BME280;48440;51.224;22.506;2023-05-07T06:02:53;99636.59;;;5.83;75.99
62402;BME280;48440;51.224;22.506;2023-05-07T06:05:19;99630.16;;;5.84;75.83
62402;BME280;48440;51.224;22.506;2023-05-07T06:07:44;99626.00;;;5.88;75.80
62402;BME280;48440;51.224;22.506;2023-05-07T06:10:10;99622.09;;;5.91;76.01
62402;BME280;48440;51.224;22.506;2023-05-07T06:12:35;99632.88;;;5.91;75.94
62402;BME280;48440;51.224;22.506;2023-05-07T06:15:00;99635.75;;;5.96;75.04
62402;BME280;48440;51.224;22.506;2023-05-07T06:17:27;99634.09;;;5.95;74.57
62402;BME280;48440;51.224;22.506;2023-05-07T06:19:52;99643.44;;;5.92;75.08
62402;BME280;48440;51.224;22.506;2023-05-07T06:22:18;99644.88;;;5.88;74.99
62402;BME280;48440;51.224;22.506;2023-05-07T06:24:43;99642.16;;;5.88;75.60
62402;BME280;48440;51.224;22.506;2023-05-07T06:27:09;99648.81;;;5.86;75.94
62402;BME280;48440;51.224;22.506;2023-05-07T06:29:34;99643.03;;;5.89;76.07
62402;BME280;48440;51.224;22.506;2023-05-07T06:32:10;99655.47;;;5.90;75.19
62402;BME280;48440;51.224;22.506;2023-05-07T06:34:36;99654.00;;;5.87;75.63
62402;BME280;48440;51.224;22.506;2023-05-07T06:37:02;99651.50;;;5.86;75.51
62402;BME280;48440;51.224;22.506;2023-05-07T06:39:28;99659.19;;;5.89;75.94
62402;BME280;48440;51.224;22.506;2023-05-07T06:41:53;99654.63;;;5.89;75.45
62402;BME280;48440;51.224;22.506;2023-05-07T06:44:19;99666.22;;;5.90;75.31
62402;BME280;48440;51.224;22.506;2023-05-07T06:46:45;99668.09;;;5.83;75.84
62402;BME280;48440;51.224;22.506;2023-05-07T06:49:13;99674.91;;;5.85;75.59
62402;BME280;48440;51.224;22.506;2023-05-07T06:51:38;99675.75;;;5.86;75.76
62402;BME280;48440;51.224;22.506;2023-05-07T06:54:04;99678.66;;;5.91;75.69
62402;BME280;48440;51.224;22.506;2023-05-07T06:56:30;99683.22;;;5.90;75.51
62402;BME280;48440;51.224;22.506;2023-05-07T06:58:56;99681.75;;;5.94;75.43
62402;BME280;48440;51.224;22.506;2023-05-07T07:01:21;99693.16;;;5.90;75.70
62402;BME280;48440;51.224;22.506;2023-05-07T07:03:47;99700.00;;;5.86;75.98
62402;BME280;48440;51.224;22.506;2023-05-07T07:06:12;99694.38;;;5.87;75.70
62402;BME280;48440;51.224;22.506;2023-05-07T07:08:38;99710.56;;;5.87;75.34
62402;BME280;48440;51.224;22.506;2023-05-07T07:11:04;99705.81;;;5.89;75.89
62402;BME280;48440;51.224;22.506;2023-05-07T07:13:30;99709.88;;;5.98;75.61
62402;BME280;48440;51.224;22.506;2023-05-07T07:15:56;99719.03;;;5.97;75.85
62402;BME280;48440;51.224;22.506;2023-05-07T07:18:21;99708.47;;;5.96;76.27
62402;BME280;48440;51.224;22.506;2023-05-07T07:20:47;99716.94;;;5.99;76.15
62402;BME280;48440;51.224;22.506;2023-05-07T07:23:12;99713.81;;;6.02;75.46
62402;BME280;48440;51.224;22.506;2023-05-07T07:25:38;99718.38;;;6.02;75.48
62402;BME280;48440;51.224;22.506;2023-05-07T07:28:03;99726.28;;;5.97;75.93
62402;BME280;48440;51.224;22.506;2023-05-07T07:30:29;99726.50;;;5.95;76.42
62402;BME280;48440;51.224;22.506;2023-05-07T07:32:54;99717.38;;;5.96;76.43
62402;BME280;48440;51.224;22.506;2023-05-07T07:35:23;99729.81;;;5.97;76.33
62402;BME280;48440;51.224;22.506;2023-05-07T07:37:48;99727.06;;;6.04;76.09
62402;BME280;48440;51.224;22.506;2023-05-07T07:40:15;99737.00;;;6.03;76.18
62402;BME280;48440;51.224;22.506;2023-05-07T07:42:40;99731.19;;;6.06;76.28
62402;BME280;48440;51.224;22.506;2023-05-07T07:45:07;99746.13;;;6.09;76.21
62402;BME280;48440;51.224;22.506;2023-05-07T07:47:32;99746.94;;;6.09;76.46
62402;BME280;48440;51.224;22.506;2023-05-07T07:49:58;99745.06;;;6.10;76.24
62402;BME280;48440;51.224;22.506;2023-05-07T07:52:23;99749.00;;;6.14;75.87
62402;BME280;48440;51.224;22.506;2023-05-07T07:54:48;99742.56;;;6.15;75.37
62402;BME280;48440;51.224;22.506;2023-05-07T07:57:14;99753.34;;;6.15;75.47
62402;BME280;48440;51.224;22.506;2023-05-07T07:59:39;99744.00;;;6.18;74.89
62402;BME280;48440;51.224;22.506;2023-05-07T08:02:05;99740.50;;;6.17;74.96
62402;BME280;48440;51.224;22.506;2023-05-07T08:04:30;99757.47;;;6.18;74.99
62402;BME280;48440;51.224;22.506;2023-05-07T08:06:58;99754.81;;;6.11;75.64
62402;BME280;48440;51.224;22.506;2023-05-07T08:09:24;99761.03;;;6.11;75.41
62402;BME280;48440;51.224;22.506;2023-05-07T08:11:53;99764.13;;;6.15;75.08
62402;BME280;48440;51.224;22.506;2023-05-07T08:14:18;99768.06;;;6.12;75.60
62402;BME280;48440;51.224;22.506;2023-05-07T08:16:44;99769.13;;;6.11;75.71
62402;BME280;48440;51.224;22.506;2023-05-07T08:19:10;99768.25;;;6.18;75.68
62402;BME280;48440;51.224;22.506;2023-05-07T08:21:39;99775.31;;;6.19;75.60
62402;BME280;48440;51.224;22.506;2023-05-07T08:24:05;99771.16;;;6.16;74.86
62402;BME280;48440;51.224;22.506;2023-05-07T08:26:31;99770.34;;;6.16;75.13
62402;BME280;48440;51.224;22.506;2023-05-07T08:28:56;99764.13;;;6.15;75.90
62402;BME280;48440;51.224;22.506;2023-05-07T08:31:22;99759.34;;;6.17;76.22
62402;BME280;48440;51.224;22.506;2023-05-07T08:33:47;99795.63;;;6.21;75.84
62402;BME280;48440;51.224;22.506;2023-05-07T08:36:13;99778.00;;;6.19;76.03
62402;BME280;48440;51.224;22.506;2023-05-07T08:38:38;99786.72;;;6.21;75.88
62402;BME280;48440;51.224;22.506;2023-05-07T08:41:06;99785.47;;;6.17;75.97
62402;BME280;48440;51.224;22.506;2023-05-07T08:43:32;99795.63;;;6.15;76.15
62402;BME280;48440;51.224;22.506;2023-05-07T08:46:01;99790.66;;;6.18;76.08
62402;BME280;48440;51.224;22.506;2023-05-07T08:48:29;99800.41;;;6.19;76.08
62402;BME280;48440;51.224;22.506;2023-05-07T08:50:57;99795.00;;;6.19;76.33
62402;BME280;48440;51.224;22.506;2023-05-07T08:53:26;99799.78;;;6.17;76.83
62402;BME280;48440;51.224;22.506;2023-05-07T08:55:52;99800.78;;;6.23;76.37
62402;BME280;48440;51.224;22.506;2023-05-07T08:58:20;99801.63;;;6.23;76.41
62402;BME280;48440;51.224;22.506;2023-05-07T09:00:47;99804.06;;;6.25;76.83
62402;BME280;48440;51.224;22.506;2023-05-07T09:03:12;99806.41;;;6.21;76.93
62402;BME280;48440;51.224;22.506;2023-05-07T09:05:39;99812.16;;;6.25;76.87
62402;BME280;48440;51.224;22.506;2023-05-07T09:08:07;99812.63;;;6.22;76.55
62402;BME280;48440;51.224;22.506;2023-05-07T09:10:33;99809.50;;;6.18;76.92
62402;BME280;48440;51.224;22.506;2023-05-07T09:13:03;99810.97;;;6.21;76.92
62402;BME280;48440;51.224;22.506;2023-05-07T09:15:38;99816.72;;;6.24;76.84
62402;BME280;48440;51.224;22.506;2023-05-07T09:18:04;99813.19;;;6.30;76.65
62402;BME280;48440;51.224;22.506;2023-05-07T09:20:32;99818.97;;;6.34;76.99
62402;BME280;48440;51.224;22.506;2023-05-07T09:22:58;99822.50;;;6.28;77.32
62402;BME280;48440;51.224;22.506;2023-05-07T09:25:30;99827.06;;;6.27;77.15
62402;BME280;48440;51.224;22.506;2023-05-07T09:27:57;99825.44;;;6.26;77.51
62402;BME280;48440;51.224;22.506;2023-05-07T09:30:23;99832.06;;;6.24;77.43
62402;BME280;48440;51.224;22.506;2023-05-07T09:32:53;99821.91;;;6.26;77.57
62402;BME280;48440;51.224;22.506;2023-05-07T09:35:19;99827.50;;;6.24;77.23
62402;BME280;48440;51.224;22.506;2023-05-07T09:37:46;99820.09;;;6.20;77.59
62402;BME280;48440;51.224;22.506;2023-05-07T09:40:26;99833.97;;;6.17;77.95
62402;BME280;48440;51.224;22.506;2023-05-07T09:42:53;99809.13;;;6.15;78.18
62402;BME280;48440;51.224;22.506;2023-05-07T09:45:26;99836.28;;;6.13;78.07
62402;BME280;48440;51.224;22.506;2023-05-07T09:47:57;99831.50;;;6.15;78.58
62402;BME280;48440;51.224;22.506;2023-05-07T09:50:27;99831.28;;;6.17;77.78
62402;BME280;48440;51.224;22.506;2023-05-07T09:52:57;99829.22;;;6.19;78.72
62402;BME280;48440;51.224;22.506;2023-05-07T09:55:24;99836.03;;;6.21;78.27
62402;BME280;48440;51.224;22.506;2023-05-07T09:57:50;99850.16;;;6.17;78.09
62402;BME280;48440;51.224;22.506;2023-05-07T10:00:19;99840.59;;;6.21;77.86
62402;BME280;48440;51.224;22.506;2023-05-07T10:02:47;99839.13;;;6.25;77.10
62402;BME280;48440;51.224;22.506;2023-05-07T10:05:14;99844.28;;;6.26;77.56
62402;BME280;48440;51.224;22.506;2023-05-07T10:07:41;99845.72;;;6.29;77.22
62402;BME280;48440;51.224;22.506;2023-05-07T10:10:07;99854.03;;;6.27;77.29
62402;BME280;48440;51.224;22.506;2023-05-07T10:12:33;99851.53;;;6.32;76.65
62402;BME280;48440;51.224;22.506;2023-05-07T10:15:08;99854.66;;;6.29;76.78
62402;BME280;48440;51.224;22.506;2023-05-07T10:17:38;99867.91;;;6.31;76.62
62402;BME280;48440;51.224;22.506;2023-05-07T10:20:08;99868.34;;;6.28;75.85
62402;BME280;48440;51.224;22.506;2023-05-07T10:22:47;99878.09;;;6.29;75.98
62402;BME280;48440;51.224;22.506;2023-05-07T10:25:23;99878.28;;;6.27;75.68
62402;BME280;48440;51.224;22.506;2023-05-07T10:27:52;99883.91;;;6.26;75.11
62402;BME280;48440;51.224;22.506;2023-05-07T10:33:09;99913.53;;;6.26;75.30
62402;BME280;48440;51.224;22.506;2023-05-07T10:35:41;99907.94;;;6.27;75.37
62402;BME280;48440;51.224;22.506;2023-05-07T10:38:08;99921.63;;;6.26;76.04
62402;BME280;48440;51.224;22.506;2023-05-07T10:40:35;99915.00;;;6.28;75.31
62402;BME280;48440;51.224;22.506;2023-05-07T10:43:05;99927.84;;;6.33;74.53
62402;BME280;48440;51.224;22.506;2023-05-07T10:45:31;99910.41;;;6.35;74.09
62402;BME280;48440;51.224;22.506;2023-05-07T10:50:40;99918.72;;;6.27;74.82
62402;BME280;48440;51.224;22.506;2023-05-07T10:55:40;99915.16;;;6.40;73.69
62402;BME280;48440;51.224;22.506;2023-05-07T10:58:22;99902.31;;;6.35;73.71
62402;BME280;48440;51.224;22.506;2023-05-07T11:04:16;99917.03;;;6.39;74.15
62402;BME280;48440;51.224;22.506;2023-05-07T11:07:14;99928.03;;;6.44;73.71
62402;BME280;48440;51.224;22.506;2023-05-07T11:09:56;99916.81;;;6.47;72.85
62402;BME280;48440;51.224;22.506;2023-05-07T11:15:06;99916.81;;;6.47;73.27
62402;BME280;48440;51.224;22.506;2023-05-07T11:17:32;99923.88;;;6.49;73.58
62402;BME280;48440;51.224;22.506;2023-05-07T11:20:01;99920.94;;;6.50;72.80
62402;BME280;48440;51.224;22.506;2023-05-07T11:22:36;99927.97;;;6.58;73.28
62402;BME280;48440;51.224;22.506;2023-05-07T11:25:05;99922.78;;;6.56;73.19
62402;BME280;48440;51.224;22.506;2023-05-07T11:27:32;99939.16;;;6.55;72.02
62402;BME280;48440;51.224;22.506;2023-05-07T11:29:58;99933.16;;;6.53;72.44
62402;BME280;48440;51.224;22.506;2023-05-07T11:32:24;99947.31;;;6.48;72.04
62402;BME280;48440;51.224;22.506;2023-05-07T11:34:54;99941.25;;;6.53;71.70
62402;BME280;48440;51.224;22.506;2023-05-07T11:37:20;99939.16;;;6.55;71.62
62402;BME280;48440;51.224;22.506;2023-05-07T11:39:46;99960.13;;;6.53;71.54
62402;BME280;48440;51.224;22.506;2023-05-07T11:44:51;99959.75;;;6.49;71.99
62402;BME280;48440;51.224;22.506;2023-05-07T11:47:18;99962.19;;;6.51;72.05
62402;BME280;48440;51.224;22.506;2023-05-07T11:49:46;99956.59;;;6.52;71.69
62402;BME280;48440;51.224;22.506;2023-05-07T11:52:13;99970.34;;;6.44;71.79
62402;BME280;48440;51.224;22.506;2023-05-07T11:54:38;99979.66;;;6.48;72.00
62402;BME280;48440;51.224;22.506;2023-05-07T11:57:04;99974.25;;;6.48;72.20
62402;BME280;48440;51.224;22.506;2023-05-07T11:59:38;99965.34;;;6.47;72.07
62402;BME280;48440;51.224;22.506;2023-05-07T12:02:06;99973.44;;;6.47;71.69
62402;BME280;48440;51.224;22.506;2023-05-07T12:04:31;99969.25;;;6.52;71.69
62402;BME280;48440;51.224;22.506;2023-05-07T12:06:57;99973.81;;;6.51;71.84
62402;BME280;48440;51.224;22.506;2023-05-07T12:09:23;99983.97;;;6.56;71.69
62402;BME280;48440;51.224;22.506;2023-05-07T12:11:48;99982.31;;;6.55;71.55
62402;BME280;48440;51.224;22.506;2023-05-07T12:14:16;99961.56;;;6.55;70.88
62402;BME280;48440;51.224;22.506;2023-05-07T12:16:42;99990.41;;;6.55;70.79
62402;BME280;48440;51.224;22.506;2023-05-07T12:19:08;99988.31;;;6.57;71.01
62402;BME280;48440;51.224;22.506;2023-05-07T12:21:37;99992.06;;;6.62;70.50
62402;BME280;48440;51.224;22.506;2023-05-07T12:24:04;99980.22;;;6.63;70.48
62402;BME280;48440;51.224;22.506;2023-05-07T12:26:29;99984.78;;;6.63;70.56
62402;BME280;48440;51.224;22.506;2023-05-07T12:28:57;99983.97;;;6.62;70.81
62402;BME280;48440;51.224;22.506;2023-05-07T12:31:25;99991.00;;;6.63;70.79
62402;BME280;48440;51.224;22.506;2023-05-07T12:33:51;99988.94;;;6.65;70.83
62402;BME280;48440;51.224;22.506;2023-05-07T12:36:16;99998.88;;;6.65;70.65
62402;BME280;48440;51.224;22.506;2023-05-07T12:38:42;99995.16;;;6.66;71.06
62402;BME280;48440;51.224;22.506;2023-05-07T12:41:09;100009.25;;;6.68;70.75
62402;BME280;48440;51.224;22.506;2023-05-07T12:43:35;99983.53;;;6.72;70.70
62402;BME280;48440;51.224;22.506;2023-05-07T12:46:04;99981.25;;;6.69;71.10
62402;BME280;48440;51.224;22.506;2023-05-07T12:48:30;99991.41;;;6.67;70.51
62402;BME280;48440;51.224;22.506;2023-05-07T12:50:57;100004.50;;;6.63;70.74
62402;BME280;48440;51.224;22.506;2023-05-07T12:53:25;100002.63;;;6.64;70.21
62402;BME280;48440;51.224;22.506;2023-05-07T12:55:53;100005.31;;;6.64;70.43
62402;BME280;48440;51.224;22.506;2023-05-07T12:58:21;100015.47;;;6.68;70.18
62402;BME280;48440;51.224;22.506;2023-05-07T13:00:50;99999.09;;;6.70;69.98
62402;BME280;48440;51.224;22.506;2023-05-07T13:03:29;100023.78;;;6.67;69.88
62402;BME280;48440;51.224;22.506;2023-05-07T13:06:00;100019.63;;;6.71;69.70
62402;BME280;48440;51.224;22.506;2023-05-07T13:08:31;100022.31;;;6.71;69.10
62402;BME280;48440;51.224;22.506;2023-05-07T13:10:59;100020.88;;;6.68;69.30
62402;BME280;48440;51.224;22.506;2023-05-07T13:13:28;100025.22;;;6.69;69.75